Portada
METAR-TAF:

METAR-TAF

Aeropuertos :

Fuerteventura, España

Aeropuerto de Fuerteventura

latitud: 28-27N, longitud: 013-52W, altitud: 22 m

Observación

El informe se hizo hace 16 minutos, a las 18:30 UTC
Viento 9 kt del norte-noroeste, variando entre oeste y norte-noreste
Temperatura 26°C
Humedad 70%
Presión 1021 hPa
Visibilidad 10 km o más
Escasas nubes a una altura de 2000 ft

METAR: GCFV 171830Z 33009KT 280V030 9999 FEW020 26/20 Q1021

Hora: 19:46 (18:46 UTC)

Pronóstico

El informe se hizo hace 4 horas y 46 minutos, a las 14:00 UTC
Pronóstico válido del 17 a las 15 UTC al 18 a las 15 UTC
Viento 9 kt del noreste
Visibilidad 10 km o más
Escasas nubes a una altura de 2500 ft
Evolucionando progresivamente
del 17 a las 18 UTC al 17 a las 20 UTC
Viento 10 kt del norte

TAF: GCFV 171400Z 1715/1815 05009KT 9999 FEW025 TX24/1813Z TN21/1806Z BECMG 1718/1720 35010KT

Observaciones y pronósticos meteorológicos de más de 4000 aeropuertos (mensajes METAR y TAF).

Los puntos amarillos y rojos representan las estaciones disponibles.

Ponga el ratón en el punto deseado para ver el nombre de la estación.

Haga clic para ver las observaciones y los pronósticos meteorológicos.

Para cambiar el mapa : haga clic en los botones verdes con una cruz de color negro para hacer un zoom, en el botón verde con un guión para alejar o en las flechas verdes para mapas adyacentes.


METAR-TAF: